Billy Budd — VSPI7 — position and weather

sailwx.info

Track history (hours):
 
Tides and Currents Weather Stations Pressure Air Temp Water Temp Dewpoint Dewpoint Depression Visibility Wind Speed Wind Dir Waves Ship Positions

Billy Budd

Last reported at 2014-Aug-24 08:11 UTC. Time now 2014-Sep-02 21:15 UTC.
Position N 36°16' E 023°05'.
Warning: this ship's position is 9 days out of date.

Length 35 m.

Type: Sailing vessel. MMSI: 235003490.

Date/timePositionNaut miles runAvg speedWind from/ knotsBaromVisibWave heightAir tempDewpointWater temp
2014-Aug-24 08:11N 36°16' E 023°05'0 0.0
2014-Aug-24 04:11N 36°16' E 023°05'12 0.3
2014-Aug-22 13:20N 36°27' E 023°12'5 1.7
2014-Aug-22 10:28N 36°31' E 023°09'9 8.6
2014-Aug-22 09:28N 36°39' E 023°08'20 2.8
2014-Aug-22 02:18N 36°58' E 022°60'  
2014-Aug-18 09:23N 37°30' E 024°27'910.2
2014-Aug-18 08:32N 37°28' E 024°38'14 0.6
2014-Aug-17 09:33N 37°22' E 024°54'7 6.5
2014-Aug-17 08:32N 37°23' E 025°02'8 7.9
2014-Aug-17 07:33N 37°24' E 025°12'1 0.9
2014-Aug-17 06:31N 37°24' E 025°13'0 0.0
2014-Aug-17 05:31N 37°24' E 025°13'0 0.0
2014-Aug-17 04:31N 37°24' E 025°13'0 0.0
2014-Aug-17 03:31N 37°24' E 025°13'0 0.0
2014-Aug-17 02:31N 37°24' E 025°13'0 0.0
2014-Aug-17 01:32N 37°24' E 025°13'0 0.0
2014-Aug-17 00:31N 37°24' E 025°13'0 0.0
2014-Aug-16 23:31N 37°24' E 025°13'0 0.0
2014-Aug-16 22:32N 37°24' E 025°13'0 0.0
2014-Aug-16 21:31N 37°24' E 025°13'0 0.0
2014-Aug-16 20:32N 37°24' E 025°13'0 0.0
2014-Aug-16 19:31N 37°24' E 025°13'0 0.0
2014-Aug-16 18:32N 37°24' E 025°13'0 0.0
2014-Aug-16 17:32N 37°24' E 025°13'0 0.0
2014-Aug-16 16:31N 37°24' E 025°13'0 0.0
2014-Aug-16 15:32N 37°24' E 025°13'0 0.0
2014-Aug-16 14:33N 37°24' E 025°13'0 0.2
2014-Aug-16 13:32N 37°24' E 025°13'0 0.4
2014-Aug-16 12:33N 37°24' E 025°13'2 2.4
2014-Aug-16 11:32N 37°23' E 025°16'0 0.0
2014-Aug-16 10:32N 37°23' E 025°16'0 0.0
2014-Aug-16 09:32N 37°23' E 025°16'0 0.2
2014-Aug-16 08:33N 37°24' E 025°16'4 4.1
2014-Aug-16 07:33N 37°27' E 025°19'1 0.6
2014-Aug-16 06:33N 37°27' E 025°19'0 0.0
2014-Aug-16 05:33N 37°27' E 025°19'0 0.0
2014-Aug-16 04:33N 37°27' E 025°19'0 0.0
2014-Aug-16 03:33N 37°27' E 025°19'0 0.0
2014-Aug-16 02:33N 37°27' E 025°19'0 0.0
2014-Aug-16 01:33N 37°27' E 025°19'0 0.0
2014-Aug-16 00:33N 37°27' E 025°19'0 0.0
2014-Aug-15 23:33N 37°27' E 025°19'0 0.0
2014-Aug-15 22:33N 37°27' E 025°19'0 0.0
2014-Aug-15 21:33N 37°27' E 025°19'0 0.0
2014-Aug-15 20:33N 37°27' E 025°19'0 0.0
2014-Aug-15 19:33N 37°27' E 025°19'0 0.0
2014-Aug-15 18:33N 37°27' E 025°19'0 0.0
2014-Aug-15 17:33N 37°27' E 025°19'0 0.0
2014-Aug-15 16:33N 37°27' E 025°19'3 3.0
2014-Aug-15 15:33N 37°24' E 025°19'4 4.0
2014-Aug-15 14:31N 37°25' E 025°24'0 0.0
2014-Aug-15 13:25N 37°25' E 025°24'0 0.0
2014-Aug-15 12:31N 37°25' E 025°24'0 0.0
2014-Aug-15 11:31N 37°25' E 025°24'0 0.0
2014-Aug-15 10:31N 37°25' E 025°24'0 0.0
2014-Aug-15 09:31N 37°25' E 025°24'7 7.4
2014-Aug-15 08:33N 37°18' E 025°22'8 7.9
2014-Aug-15 07:33N 37°11' E 025°22'5 4.7
2014-Aug-15 06:33N 37°06' E 025°22'0 0.0
2014-Aug-15 05:33N 37°06' E 025°22'0 0.0
2014-Aug-15 04:33N 37°06' E 025°22'0 0.0
2014-Aug-15 03:33N 37°06' E 025°22'0 0.0
2014-Aug-15 02:33N 37°06' E 025°22'0 0.0
2014-Aug-15 01:33N 37°06' E 025°22'0 0.0
2014-Aug-15 00:33N 37°06' E 025°22'0 0.0
2014-Aug-14 23:33N 37°06' E 025°22'0 0.0
2014-Aug-14 22:33N 37°06' E 025°22'0 0.0
2014-Aug-14 21:33N 37°06' E 025°22'0 0.0
2014-Aug-14 20:33N 37°06' E 025°22'0 0.0
2014-Aug-14 19:33N 37°06' E 025°22'0 0.0
2014-Aug-14 18:33N 37°06' E 025°22'0 0.0
2014-Aug-14 17:33N 37°06' E 025°22'0 0.0
2014-Aug-14 16:33N 37°06' E 025°22'0 0.0
2014-Aug-14 15:33N 37°06' E 025°22'0 0.0
2014-Aug-14 14:33N 37°06' E 025°22'0 0.0
2014-Aug-14 13:33N 37°06' E 025°22'0 0.0
2014-Aug-14 12:33N 37°06' E 025°22'0 0.0
2014-Aug-14 11:33N 37°06' E 025°22'0 0.0
2014-Aug-14 10:33N 37°06' E 025°22'0 0.0
2014-Aug-14 09:33N 37°06' E 025°22'0 0.0
2014-Aug-14 08:33N 37°06' E 025°22'  
Track history (hours):
 
Tides and Currents Weather Stations Pressure Air Temp Water Temp Dewpoint Dewpoint Depression Visibility Wind Speed Wind Dir Waves Ship Positions

Billy Budd

Last reported at 2014-Aug-24 08:11 UTC. Time now 2014-Sep-02 21:15 UTC.
Position N 36°16' E 023°05'.
Warning: this ship's position is 9 days out of date.

Length 35 m.

Type: Sailing vessel. MMSI: 235003490.

Date/timePositionNaut miles runAvg speedWind from/ knotsBaromVisibWave heightAir tempDewpointWater temp
2014-Aug-24 08:11N 36°16' E 023°05'0 0.0
2014-Aug-24 04:11N 36°16' E 023°05'12 0.3
2014-Aug-22 13:20N 36°27' E 023°12'5 1.7
2014-Aug-22 10:28N 36°31' E 023°09'9 8.6
2014-Aug-22 09:28N 36°39' E 023°08'20 2.8
2014-Aug-22 02:18N 36°58' E 022°60'  
2014-Aug-18 09:23N 37°30' E 024°27'910.2
2014-Aug-18 08:32N 37°28' E 024°38'14 0.6
2014-Aug-17 09:33N 37°22' E 024°54'7 6.5
2014-Aug-17 08:32N 37°23' E 025°02'8 7.9
2014-Aug-17 07:33N 37°24' E 025°12'1 0.9
2014-Aug-17 06:31N 37°24' E 025°13'0 0.0
2014-Aug-17 05:31N 37°24' E 025°13'0 0.0
2014-Aug-17 04:31N 37°24' E 025°13'0 0.0
2014-Aug-17 03:31N 37°24' E 025°13'0 0.0
2014-Aug-17 02:31N 37°24' E 025°13'0 0.0
2014-Aug-17 01:32N 37°24' E 025°13'0 0.0
2014-Aug-17 00:31N 37°24' E 025°13'0 0.0
2014-Aug-16 23:31N 37°24' E 025°13'0 0.0
2014-Aug-16 22:32N 37°24' E 025°13'0 0.0
2014-Aug-16 21:31N 37°24' E 025°13'0 0.0
2014-Aug-16 20:32N 37°24' E 025°13'0 0.0
2014-Aug-16 19:31N 37°24' E 025°13'0 0.0
2014-Aug-16 18:32N 37°24' E 025°13'0 0.0
2014-Aug-16 17:32N 37°24' E 025°13'0 0.0
2014-Aug-16 16:31N 37°24' E 025°13'0 0.0
2014-Aug-16 15:32N 37°24' E 025°13'0 0.0
2014-Aug-16 14:33N 37°24' E 025°13'0 0.2
2014-Aug-16 13:32N 37°24' E 025°13'0 0.4
2014-Aug-16 12:33N 37°24' E 025°13'2 2.4
2014-Aug-16 11:32N 37°23' E 025°16'0 0.0
2014-Aug-16 10:32N 37°23' E 025°16'0 0.0
2014-Aug-16 09:32N 37°23' E 025°16'0 0.2
2014-Aug-16 08:33N 37°24' E 025°16'4 4.1
2014-Aug-16 07:33N 37°27' E 025°19'1 0.6
2014-Aug-16 06:33N 37°27' E 025°19'0 0.0
2014-Aug-16 05:33N 37°27' E 025°19'0 0.0
2014-Aug-16 04:33N 37°27' E 025°19'0 0.0
2014-Aug-16 03:33N 37°27' E 025°19'0 0.0
2014-Aug-16 02:33N 37°27' E 025°19'0 0.0
2014-Aug-16 01:33N 37°27' E 025°19'0 0.0
2014-Aug-16 00:33N 37°27' E 025°19'0 0.0
2014-Aug-15 23:33N 37°27' E 025°19'0 0.0
2014-Aug-15 22:33N 37°27' E 025°19'0 0.0
2014-Aug-15 21:33N 37°27' E 025°19'0 0.0
2014-Aug-15 20:33N 37°27' E 025°19'0 0.0
2014-Aug-15 19:33N 37°27' E 025°19'0 0.0
2014-Aug-15 18:33N 37°27' E 025°19'0 0.0
2014-Aug-15 17:33N 37°27' E 025°19'0 0.0
2014-Aug-15 16:33N 37°27' E 025°19'3 3.0
2014-Aug-15 15:33N 37°24' E 025°19'4 4.0
2014-Aug-15 14:31N 37°25' E 025°24'0 0.0
2014-Aug-15 13:25N 37°25' E 025°24'0 0.0
2014-Aug-15 12:31N 37°25' E 025°24'0 0.0
2014-Aug-15 11:31N 37°25' E 025°24'0 0.0
2014-Aug-15 10:31N 37°25' E 025°24'0 0.0
2014-Aug-15 09:31N 37°25' E 025°24'7 7.4
2014-Aug-15 08:33N 37°18' E 025°22'8 7.9
2014-Aug-15 07:33N 37°11' E 025°22'5 4.7
2014-Aug-15 06:33N 37°06' E 025°22'0 0.0
2014-Aug-15 05:33N 37°06' E 025°22'0 0.0
2014-Aug-15 04:33N 37°06' E 025°22'0 0.0
2014-Aug-15 03:33N 37°06' E 025°22'0 0.0
2014-Aug-15 02:33N 37°06' E 025°22'0 0.0
2014-Aug-15 01:33N 37°06' E 025°22'0 0.0
2014-Aug-15 00:33N 37°06' E 025°22'0 0.0
2014-Aug-14 23:33N 37°06' E 025°22'0 0.0
2014-Aug-14 22:33N 37°06' E 025°22'0 0.0
2014-Aug-14 21:33N 37°06' E 025°22'0 0.0
2014-Aug-14 20:33N 37°06' E 025°22'0 0.0
2014-Aug-14 19:33N 37°06' E 025°22'0 0.0
2014-Aug-14 18:33N 37°06' E 025°22'0 0.0
2014-Aug-14 17:33N 37°06' E 025°22'0 0.0
2014-Aug-14 16:33N 37°06' E 025°22'0 0.0
2014-Aug-14 15:33N 37°06' E 025°22'0 0.0
2014-Aug-14 14:33N 37°06' E 025°22'0 0.0
2014-Aug-14 13:33N 37°06' E 025°22'0 0.0
2014-Aug-14 12:33N 37°06' E 025°22'0 0.0
2014-Aug-14 11:33N 37°06' E 025°22'0 0.0
2014-Aug-14 10:33N 37°06' E 025°22'0 0.0
2014-Aug-14 09:33N 37°06' E 025°22'0 0.0
2014-Aug-14 08:33N 37°06' E 025°22'  

Dump ship's entire track history